Albion, Washington
Current Conditions -  °F | °C
As of 4:53 AM on Saturday 20 Dec 2014 (Local Time) from KPUW Reporting Station
Overcast Overcast  
Wind Chill: 27°   Ceiling: 7500
Heat Index: 35°   Visibility: 10mi
Dew Point: 33°   Wind: 10mph
Humidity: 92%   Direction: 100°E
Pressure: 29.92"   Gusts: NA
Location:  46.79°N, 117.25°W
Report Text: KPUW 201253Z AUTO 10009KT 10SM OVC075 02/01 A2992 RMK AO2 SLP148 T00170006
Loading
Personal Weather Stations






























Interactive Weather Map New forecast layout! Learn more

10-Day Weather Forecast

Advertisements
Track Severe Weather on mobile